createdAt,value
2023-01-22T00:00:55.369Z,33.40
2023-01-22T00:02:59.740Z,36.25
2023-01-22T00:05:01.224Z,38.47
2023-01-22T00:07:02.969Z,36.95
2023-01-22T00:09:04.466Z,37.03
2023-01-22T00:11:09.785Z,38.00
2023-01-22T00:13:11.283Z,39.30
2023-01-22T00:17:16.893Z,40.65
2023-01-22T00:19:18.423Z,36.08
2023-01-22T00:21:22.760Z,37.85
2023-01-22T00:23:24.869Z,37.95
2023-01-22T00:25:26.301Z,37.47
2023-01-22T00:27:27.742Z,37.50
2023-01-22T00:29:29.337Z,36.90
2023-01-22T00:31:30.845Z,37.33
2023-01-22T00:33:33.064Z,39.15
2023-01-22T00:35:34.747Z,37.15
2023-01-22T00:37:36.977Z,39.67
2023-01-22T00:39:41.270Z,34.13
2023-01-22T00:41:43.329Z,37.47
2023-01-22T00:43:47.883Z,35.30
2023-01-22T00:45:49.366Z,35.50
2023-01-22T00:47:53.853Z,37.72
2023-01-22T00:49:55.306Z,34.85
2023-01-22T00:51:56.769Z,33.67
2023-01-22T00:54:01.248Z,36.10
2023-01-22T00:56:03.170Z,33.60
2023-01-22T00:58:04.596Z,35.53
2023-01-22T01:00:06.409Z,36.38
2023-01-22T01:02:10.673Z,35.20
2023-01-22T01:04:15.184Z,34.95
2023-01-22T01:06:18.655Z,33.67
2023-01-22T01:08:24.144Z,34.13
2023-01-22T01:10:25.620Z,34.08
2023-01-22T01:12:27.077Z,33.45
2023-01-22T01:16:32.931Z,33.17
2023-01-22T01:18:53.127Z,33.83
2023-01-22T01:20:57.771Z,34.88
2023-01-22T01:23:01.814Z,34.38
2023-01-22T01:25:03.373Z,31.17
2023-01-22T01:27:04.821Z,34.10
2023-01-22T01:29:09.893Z,32.47
2023-01-22T01:31:15.978Z,33.22
2023-01-22T01:33:17.722Z,35.95
2023-01-22T01:35:24.230Z,35.25
2023-01-22T01:37:30.213Z,37.80
2023-01-22T01:39:35.943Z,35.08
2023-01-22T01:41:45.781Z,36.67
2023-01-22T01:44:12.597Z,35.42
2023-01-22T01:46:25.071Z,35.63
2023-01-22T01:48:51.083Z,37.50
2023-01-22T01:51:16.720Z,35.40
2023-01-22T01:53:30.280Z,34.45
2023-01-22T01:55:44.488Z,31.27
2023-01-22T01:57:53.761Z,32.03
2023-01-22T02:00:03.743Z,31.10
2023-01-22T02:02:13.329Z,31.45
2023-01-22T02:04:22.817Z,30.60
2023-01-22T02:06:32.556Z,30.70
2023-01-22T02:08:43.864Z,29.40
2023-01-22T02:10:53.178Z,28.83
2023-01-22T02:12:55.944Z,34.33
2023-01-22T02:15:02.433Z,33.13
2023-01-22T02:17:08.546Z,38.13
2023-01-22T02:19:12.762Z,36.25
2023-01-22T02:21:35.544Z,31.48
2023-01-22T02:23:39.802Z,31.00
2023-01-22T02:25:44.187Z,31.35
2023-01-22T02:28:04.562Z,33.80
2023-01-22T02:30:09.110Z,33.83
2023-01-22T02:32:16.805Z,33.63
2023-01-22T02:34:18.202Z,30.00
2023-01-22T02:36:22.549Z,33.40
2023-01-22T02:38:23.984Z,33.13
2023-01-22T02:42:33.983Z,30.95
2023-01-22T02:44:37.991Z,30.02
2023-01-22T02:46:57.824Z,30.35
2023-01-22T02:49:17.760Z,31.52
2023-01-22T02:53:23.312Z,29.75
2023-01-22T02:57:30.305Z,28.15
2023-01-22T02:59:35.163Z,29.45
2023-01-22T03:01:57.119Z,30.23
2023-01-22T03:04:01.501Z,31.52
2023-01-22T03:06:05.740Z,30.95
2023-01-22T03:08:09.895Z,30.80
2023-01-22T03:12:15.553Z,30.23
2023-01-22T03:14:35.574Z,28.33
2023-01-22T03:16:55.567Z,30.98
2023-01-22T03:19:15.358Z,31.50
2023-01-22T03:21:16.989Z,28.08
2023-01-22T03:23:37.510Z,26.02
2023-01-22T03:25:39.001Z,29.00
2023-01-22T03:28:00.413Z,31.42
2023-01-22T03:30:01.965Z,29.90
2023-01-22T03:32:04.088Z,29.88
2023-01-22T03:34:08.177Z,29.58
2023-01-22T03:36:18.999Z,28.65
2023-01-22T03:38:23.461Z,29.60
2023-01-22T03:40:27.880Z,31.73
2023-01-22T03:42:32.456Z,30.73
2023-01-22T03:44:36.950Z,28.50
2023-01-22T03:46:41.359Z,30.20
2023-01-22T03:48:49.697Z,30.52
2023-01-22T03:51:11.116Z,30.85
2023-01-22T03:53:12.603Z,34.40
2023-01-22T03:55:17.193Z,30.42
2023-01-22T03:57:18.730Z,31.35
2023-01-22T03:59:20.331Z,32.22
2023-01-22T04:01:40.392Z,32.83
2023-01-22T04:03:42.087Z,30.65
2023-01-22T04:05:43.600Z,28.15
2023-01-22T04:07:45.068Z,30.45
2023-01-22T04:11:53.523Z,27.63
2023-01-22T04:13:55.436Z,29.75
2023-01-22T04:15:56.903Z,29.92
2023-01-22T04:18:16.888Z,29.92
2023-01-22T04:20:36.919Z,26.55
2023-01-22T04:22:41.029Z,27.80
2023-01-22T04:24:42.594Z,26.17
2023-01-22T04:26:44.187Z,28.33
2023-01-22T04:28:48.611Z,26.67
2023-01-22T04:30:53.757Z,24.98
2023-01-22T04:32:57.807Z,24.15
2023-01-22T04:35:18.009Z,24.20
2023-01-22T04:37:19.451Z,22.92
2023-01-22T04:41:43.720Z,21.15
2023-01-22T04:44:04.849Z,23.25
2023-01-22T04:46:34.273Z,23.17
2023-01-22T04:49:04.934Z,22.95
2023-01-22T04:51:19.037Z,23.92
2023-01-22T04:53:48.239Z,22.33
2023-01-22T04:56:01.905Z,24.73
2023-01-22T04:58:13.413Z,22.27
2023-01-22T05:00:27.215Z,22.50
2023-01-22T05:02:43.111Z,22.15
2023-01-22T05:05:15.389Z,21.42
2023-01-22T05:07:45.047Z,20.92
2023-01-22T05:09:59.276Z,22.60
2023-01-22T05:12:10.956Z,22.52
2023-01-22T05:14:26.036Z,21.33
2023-01-22T05:16:32.010Z,21.35
2023-01-22T05:18:33.463Z,23.50
2023-01-22T05:20:37.511Z,22.55
2023-01-22T05:22:39.000Z,21.45
2023-01-22T05:24:40.422Z,22.13
2023-01-22T05:26:42.202Z,22.10
2023-01-22T05:28:46.416Z,23.35
2023-01-22T05:30:48.309Z,21.70
2023-01-22T05:32:58.589Z,21.30
2023-01-22T05:35:00.141Z,21.70
2023-01-22T05:37:04.578Z,22.02
2023-01-22T05:39:06.099Z,21.05
2023-01-22T05:41:07.554Z,20.27
2023-01-22T05:43:12.107Z,24.27
2023-01-22T05:45:16.400Z,21.40
2023-01-22T05:47:20.728Z,21.95
2023-01-22T05:49:25.024Z,22.38
2023-01-22T05:51:27.152Z,22.38
2023-01-22T05:53:31.253Z,21.27
2023-01-22T05:55:36.078Z,18.52
2023-01-22T05:57:37.572Z,18.38
2023-01-22T05:59:39.036Z,19.60
2023-01-22T06:03:47.391Z,18.88
2023-01-22T06:05:56.675Z,20.75
2023-01-22T06:07:58.117Z,18.98
2023-01-22T06:10:18.732Z,19.60
2023-01-22T06:12:23.381Z,21.08
2023-01-22T06:14:24.862Z,20.30
2023-01-22T06:16:29.495Z,21.90
2023-01-22T06:18:34.352Z,19.52
2023-01-22T06:20:38.802Z,18.88
2023-01-22T06:22:43.256Z,20.55
2023-01-22T06:24:47.708Z,18.92
2023-01-22T06:28:59.463Z,19.70
2023-01-22T06:31:08.520Z,18.83
2023-01-22T06:33:10.037Z,19.02
2023-01-22T06:35:14.465Z,20.33
2023-01-22T06:37:19.024Z,21.67
2023-01-22T06:39:23.203Z,21.05
2023-01-22T06:41:27.748Z,18.75
2023-01-22T06:43:32.315Z,17.38
2023-01-22T06:45:37.926Z,20.08
2023-01-22T06:47:43.159Z,18.00
2023-01-22T06:49:44.639Z,18.15
2023-01-22T06:53:56.447Z,18.40
2023-01-22T06:56:04.153Z,17.13
2023-01-22T06:58:11.362Z,18.52
2023-01-22T07:00:13.065Z,19.45
2023-01-22T07:02:17.955Z,19.08
2023-01-22T07:04:22.488Z,18.00
2023-01-22T07:06:23.985Z,16.88
2023-01-22T07:08:44.559Z,18.65
2023-01-22T07:10:52.594Z,18.85
2023-01-22T07:12:59.026Z,16.67
2023-01-22T07:15:00.571Z,17.60
2023-01-22T07:17:08.280Z,18.05
2023-01-22T07:19:09.950Z,20.30
2023-01-22T07:21:12.242Z,17.67
2023-01-22T07:23:13.776Z,17.65
2023-01-22T07:27:19.376Z,16.35
2023-01-22T07:29:26.756Z,16.90
2023-01-22T07:31:28.584Z,16.40
2023-01-22T07:33:36.253Z,18.95
2023-01-22T07:35:56.993Z,15.57
2023-01-22T07:38:04.276Z,17.27
2023-01-22T07:40:06.394Z,16.90
2023-01-22T07:42:12.219Z,16.67
2023-01-22T07:44:13.730Z,18.13
2023-01-22T07:46:17.437Z,18.50
2023-01-22T07:48:19.305Z,17.63
2023-01-22T07:50:22.070Z,16.65
2023-01-22T07:52:25.802Z,18.80
2023-01-22T07:56:34.883Z,16.35
2023-01-22T07:58:42.204Z,16.77
2023-01-22T08:00:46.425Z,17.90
2023-01-22T08:02:51.292Z,16.45
2023-01-22T08:05:15.338Z,15.85
2023-01-22T08:07:20.304Z,17.15
2023-01-22T08:09:26.638Z,19.08
2023-01-22T08:11:30.107Z,16.65
2023-01-22T08:13:33.540Z,17.17
2023-01-22T08:15:43.367Z,16.65
2023-01-22T08:17:53.238Z,16.58
2023-01-22T08:19:56.792Z,16.95
2023-01-22T08:22:01.519Z,19.05
2023-01-22T08:24:05.266Z,15.98
2023-01-22T08:26:09.795Z,16.77
2023-01-22T08:28:14.352Z,15.73
2023-01-22T08:30:19.172Z,16.15
2023-01-22T08:32:26.960Z,15.95
2023-01-22T08:34:31.333Z,16.48
2023-01-22T08:36:32.848Z,16.27
2023-01-22T08:38:34.317Z,16.80
2023-01-22T08:40:38.785Z,15.27
2023-01-22T08:42:40.576Z,16.02
2023-01-22T08:44:50.788Z,15.68
2023-01-22T08:46:58.638Z,15.32
2023-01-22T08:49:00.117Z,16.92
2023-01-22T08:51:02.039Z,16.88
2023-01-22T08:53:03.588Z,18.92
2023-01-22T08:55:06.874Z,18.58
2023-01-22T08:57:08.584Z,18.87
2023-01-22T08:59:10.075Z,17.77
2023-01-22T09:01:15.983Z,19.42
2023-01-22T09:03:17.515Z,20.23
2023-01-22T09:07:26.062Z,19.20
2023-01-22T09:09:33.664Z,20.42
2023-01-22T09:11:38.119Z,17.50
2023-01-22T09:13:59.228Z,18.80
2023-01-22T09:16:10.841Z,20.30
2023-01-22T09:18:18.307Z,18.92
2023-01-22T09:20:20.001Z,18.73
2023-01-22T09:22:24.706Z,19.92
2023-01-22T09:24:26.185Z,19.95
2023-01-22T09:26:27.756Z,19.45
2023-01-22T09:28:36.247Z,20.80
2023-01-22T09:30:56.620Z,19.83
2023-01-22T09:32:58.151Z,28.33
2023-01-22T09:34:59.649Z,29.77
2023-01-22T09:39:09.537Z,31.92
2023-01-22T09:41:14.606Z,33.70
2023-01-22T09:43:25.911Z,29.33
2023-01-22T09:45:32.592Z,30.48
2023-01-22T09:47:40.343Z,29.00
2023-01-22T09:49:47.696Z,26.85
2023-01-22T09:51:59.723Z,29.70
2023-01-22T09:54:05.226Z,28.15
2023-01-22T09:56:17.583Z,23.58
2023-01-22T09:58:25.890Z,23.63
2023-01-22T10:00:39.054Z,21.85
2023-01-22T10:03:01.933Z,23.83
2023-01-22T10:05:26.451Z,26.55
2023-01-22T10:07:37.047Z,23.70
2023-01-22T10:09:40.147Z,23.58
2023-01-22T10:11:46.307Z,23.17
2023-01-22T10:13:54.083Z,26.02
2023-01-22T10:16:01.779Z,24.38
2023-01-22T10:18:06.430Z,24.27
2023-01-22T10:20:12.525Z,23.02
2023-01-22T10:22:20.491Z,24.70
2023-01-22T10:24:24.889Z,24.80
2023-01-22T10:26:37.238Z,24.83
2023-01-22T10:28:43.276Z,22.55
2023-01-22T10:30:48.969Z,24.85
2023-01-22T10:33:00.944Z,23.45
2023-01-22T10:37:10.663Z,24.70
2023-01-22T10:39:13.880Z,25.55
2023-01-22T10:41:18.984Z,24.33
2023-01-22T10:43:20.463Z,24.23
2023-01-22T10:45:22.131Z,25.15
2023-01-22T10:47:29.802Z,24.80
2023-01-22T10:49:31.347Z,25.73
2023-01-22T10:51:37.207Z,25.08
2023-01-22T10:53:57.812Z,26.95
2023-01-22T10:56:03.386Z,24.77
2023-01-22T10:58:18.511Z,24.50
2023-01-22T11:00:30.269Z,26.40
2023-01-22T11:02:47.402Z,24.65
2023-01-22T11:04:52.716Z,25.48
2023-01-22T11:07:03.996Z,24.83
2023-01-22T11:09:13.073Z,26.77
2023-01-22T11:11:19.256Z,24.00
2023-01-22T11:13:40.262Z,23.98
2023-01-22T11:15:59.146Z,23.05
2023-01-22T11:18:03.544Z,22.10
2023-01-22T11:20:21.324Z,22.17
2023-01-22T11:22:41.136Z,21.23
2023-01-22T11:24:50.687Z,22.77
2023-01-22T11:26:55.724Z,22.77
2023-01-22T11:29:15.851Z,21.45
2023-01-22T11:31:25.758Z,23.25
2023-01-22T11:33:46.779Z,22.58
2023-01-22T11:35:48.277Z,23.38
2023-01-22T11:38:08.366Z,24.35
2023-01-22T11:40:18.900Z,23.17
2023-01-22T11:42:23.257Z,24.33
2023-01-22T11:44:24.712Z,24.73
2023-01-22T11:46:34.661Z,24.42
2023-01-22T11:48:55.284Z,22.77
2023-01-22T11:51:34.047Z,23.92
2023-01-22T11:53:45.119Z,22.60
2023-01-22T11:56:12.292Z,21.88
2023-01-22T11:58:32.356Z,23.17
2023-01-22T12:00:33.963Z,23.23
2023-01-22T12:02:57.528Z,24.20
2023-01-22T12:05:11.747Z,22.83
2023-01-22T12:07:29.649Z,23.48
2023-01-22T12:09:34.040Z,22.55
2023-01-22T12:11:41.579Z,24.17
2023-01-22T12:13:58.329Z,24.30
2023-01-22T12:16:08.407Z,23.35
2023-01-22T12:18:16.244Z,20.27
2023-01-22T12:20:18.256Z,21.85
2023-01-22T12:22:45.964Z,22.55
2023-01-22T12:25:09.065Z,21.83
2023-01-22T12:27:15.963Z,21.65
2023-01-22T12:29:29.519Z,21.83
2023-01-22T12:32:00.351Z,22.08
2023-01-22T12:34:13.250Z,21.02
2023-01-22T12:36:18.802Z,21.38
2023-01-22T12:38:26.260Z,23.25
2023-01-22T12:40:44.880Z,25.20
2023-01-22T12:42:52.399Z,23.85
2023-01-22T12:45:06.383Z,24.70
2023-01-22T12:47:16.869Z,24.55
2023-01-22T12:49:20.818Z,24.58
2023-01-22T12:51:27.101Z,24.35
2023-01-22T12:53:34.837Z,21.75
2023-01-22T12:55:44.247Z,22.15
2023-01-22T12:57:46.020Z,21.63
2023-01-22T12:59:54.559Z,22.13
2023-01-22T13:02:03.714Z,22.38
2023-01-22T13:04:12.557Z,19.83
2023-01-22T13:06:19.508Z,19.58
2023-01-22T13:08:34.291Z,20.48
2023-01-22T13:11:05.189Z,19.92
2023-01-22T13:13:23.542Z,19.85
2023-01-22T13:15:28.071Z,21.83
2023-01-22T13:18:11.512Z,21.98
2023-01-22T13:20:20.139Z,22.80
2023-01-22T13:22:26.901Z,23.33
2023-01-22T13:24:28.780Z,23.05
2023-01-22T13:26:33.055Z,24.33
2023-01-22T13:28:42.038Z,22.38
2023-01-22T13:30:43.459Z,22.48
2023-01-22T13:32:44.937Z,23.02
2023-01-22T13:35:05.876Z,25.83
2023-01-22T13:37:07.578Z,24.30
2023-01-22T13:41:21.956Z,23.20
2023-01-22T13:43:27.069Z,24.73
2023-01-22T13:45:30.047Z,24.65
2023-01-22T13:47:32.874Z,26.35
2023-01-22T13:49:43.791Z,24.65
2023-01-22T13:52:06.006Z,25.10
2023-01-22T13:54:08.357Z,24.67
2023-01-22T13:56:20.447Z,24.63
2023-01-22T13:58:48.465Z,23.02
2023-01-22T14:00:53.176Z,23.67
2023-01-22T14:03:24.911Z,24.13
2023-01-22T14:05:29.365Z,23.43
2023-01-22T14:07:40.414Z,22.75
2023-01-22T14:10:15.399Z,24.70
2023-01-22T14:12:37.053Z,23.85
2023-01-22T14:14:40.795Z,27.83
2023-01-22T14:17:03.055Z,25.00
2023-01-22T14:19:06.870Z,23.23
2023-01-22T14:21:08.964Z,24.77
2023-01-22T14:23:13.988Z,24.10
2023-01-22T14:25:22.367Z,24.83
2023-01-22T14:27:40.872Z,24.58
2023-01-22T14:29:47.558Z,25.67
2023-01-22T14:31:51.043Z,26.63
2023-01-22T14:33:59.874Z,25.88
2023-01-22T14:36:02.980Z,28.63
2023-01-22T14:38:08.578Z,29.92
2023-01-22T14:40:16.418Z,29.40
2023-01-22T14:42:37.714Z,29.42
2023-01-22T14:44:46.405Z,29.05
2023-01-22T14:46:52.424Z,28.55
2023-01-22T14:48:55.742Z,29.55
2023-01-22T14:51:01.542Z,30.98
2023-01-22T14:53:06.576Z,30.05
2023-01-22T14:55:08.695Z,33.63
2023-01-22T14:57:19.396Z,33.05
2023-01-22T14:59:26.772Z,32.72
2023-01-22T15:01:31.151Z,34.97
2023-01-22T15:03:35.549Z,32.88
2023-01-22T15:05:40.039Z,35.80
2023-01-22T15:09:48.437Z,35.07
2023-01-22T15:11:52.962Z,36.33
2023-01-22T15:13:57.581Z,35.80
2023-01-22T15:16:17.183Z,34.40
2023-01-22T15:18:21.368Z,36.70
2023-01-22T15:20:25.633Z,36.60
2023-01-22T15:22:27.177Z,38.03
2023-01-22T15:24:28.644Z,36.78
2023-01-22T15:26:36.569Z,37.72
2023-01-22T15:28:41.006Z,41.50
2023-01-22T15:31:07.535Z,40.33
2023-01-22T15:33:08.994Z,40.28
2023-01-22T15:37:14.955Z,41.45
2023-01-22T15:39:16.839Z,43.63
2023-01-22T15:41:37.216Z,42.92
2023-01-22T15:43:38.716Z,41.85
2023-01-22T15:45:40.145Z,43.13
2023-01-22T15:47:44.449Z,42.28
2023-01-22T15:50:05.475Z,45.75
2023-01-22T15:52:06.918Z,47.20
2023-01-22T15:54:27.038Z,46.72
2023-01-22T15:56:30.254Z,44.90
2023-01-22T15:58:34.780Z,48.00
2023-01-22T16:00:57.326Z,47.17
2023-01-22T16:02:58.884Z,45.47
2023-01-22T16:05:03.040Z,50.53
2023-01-22T16:09:08.560Z,44.78
2023-01-22T16:13:17.190Z,45.40
2023-01-22T16:15:24.789Z,47.88
2023-01-22T16:17:29.276Z,47.92
2023-01-22T16:19:34.316Z,50.53
2023-01-22T16:21:35.888Z,51.55
2023-01-22T16:23:43.086Z,49.70
2023-01-22T16:25:44.596Z,51.88
2023-01-22T16:29:50.166Z,51.75
2023-01-22T16:31:51.853Z,56.75
2023-01-22T16:33:55.015Z,50.42
2023-01-22T16:36:17.211Z,53.90
2023-01-22T16:38:18.747Z,48.78
2023-01-22T16:40:20.459Z,50.42
2023-01-22T16:42:24.861Z,50.75
2023-01-22T16:44:31.857Z,56.35
2023-01-22T16:46:54.721Z,49.90
2023-01-22T16:48:59.307Z,52.80
2023-01-22T16:51:03.846Z,53.72
2023-01-22T16:53:25.216Z,50.55
2023-01-22T16:55:26.692Z,49.58
2023-01-22T16:57:31.567Z,53.80
2023-01-22T16:59:34.441Z,52.20
2023-01-22T17:01:36.160Z,53.13
2023-01-22T17:03:38.004Z,54.17
2023-01-22T17:05:39.456Z,54.72
2023-01-22T17:07:42.719Z,60.17
2023-01-22T17:09:56.852Z,61.22
2023-01-22T17:12:15.674Z,53.10
2023-01-22T17:14:30.191Z,55.15
2023-01-22T17:16:37.911Z,55.47
2023-01-22T17:19:06.344Z,68.78
2023-01-22T17:21:23.321Z,64.68
2023-01-22T17:23:32.275Z,62.40
2023-01-22T17:25:40.027Z,60.85
2023-01-22T17:27:48.171Z,62.00
2023-01-22T17:29:55.550Z,60.72
2023-01-22T17:32:20.564Z,62.53
2023-01-22T17:34:25.020Z,62.10
2023-01-22T17:36:33.516Z,60.85
2023-01-22T17:38:42.787Z,67.10
2023-01-22T17:40:45.064Z,64.72
2023-01-22T17:42:49.506Z,63.65
2023-01-22T17:45:09.985Z,64.70
2023-01-22T17:47:11.432Z,71.32
2023-01-22T17:49:33.277Z,69.95
2023-01-22T17:51:53.134Z,70.70
2023-01-22T17:53:59.240Z,63.40
2023-01-22T17:56:07.471Z,64.40
2023-01-22T17:58:08.940Z,62.95
2023-01-22T18:00:10.808Z,63.72
2023-01-22T18:02:12.535Z,58.28
2023-01-22T18:04:34.640Z,63.92
2023-01-22T18:06:36.897Z,66.28
2023-01-22T18:08:44.421Z,67.03
2023-01-22T18:10:46.017Z,66.70
2023-01-22T18:12:49.224Z,61.60
2023-01-22T18:14:50.681Z,59.50
2023-01-22T18:16:55.022Z,59.67
2023-01-22T18:18:58.252Z,59.65
2023-01-22T18:21:02.448Z,59.03
2023-01-22T18:25:07.981Z,56.55
2023-01-22T18:27:09.680Z,56.72
2023-01-22T18:29:11.702Z,55.88
2023-01-22T18:31:17.555Z,55.95
2023-01-22T18:33:20.558Z,53.85
2023-01-22T18:35:26.914Z,53.67
2023-01-22T18:37:33.778Z,55.45
2023-01-22T18:41:55.612Z,53.08
2023-01-22T18:44:01.389Z,63.65
2023-01-22T18:46:04.264Z,58.65
2023-01-22T18:48:11.043Z,59.33
2023-01-22T18:50:16.609Z,59.70
2023-01-22T18:52:18.163Z,60.33
2023-01-22T18:54:19.789Z,54.33
2023-01-22T18:56:40.366Z,56.67
2023-01-22T18:58:44.856Z,58.88
2023-01-22T19:02:56.903Z,52.53
2023-01-22T19:05:17.031Z,51.30
2023-01-22T19:07:21.291Z,52.83
2023-01-22T19:09:22.918Z,56.10
2023-01-22T19:11:27.480Z,59.55
2023-01-22T19:13:31.796Z,64.90
2023-01-22T19:15:33.670Z,65.70
2023-01-22T19:17:38.138Z,64.50
2023-01-22T19:19:45.326Z,62.03
2023-01-22T19:21:52.470Z,59.80
2023-01-22T19:23:58.057Z,61.00
2023-01-22T19:26:13.935Z,60.55
2023-01-22T19:28:19.123Z,62.40
2023-01-22T19:30:23.043Z,61.92
2023-01-22T19:32:33.291Z,63.42
2023-01-22T19:34:34.776Z,60.80
2023-01-22T19:36:39.513Z,60.22
2023-01-22T19:39:00.720Z,65.10
2023-01-22T19:41:03.837Z,60.63
2023-01-22T19:43:09.113Z,63.40
2023-01-22T19:45:10.731Z,63.70
2023-01-22T19:47:12.448Z,61.17
2023-01-22T19:49:13.947Z,70.78
2023-01-22T19:51:17.145Z,66.30
2023-01-22T19:53:30.737Z,68.65
2023-01-22T19:55:38.603Z,74.93
2023-01-22T19:57:40.224Z,75.28
2023-01-22T19:59:42.701Z,75.40
2023-01-22T20:01:48.587Z,76.95
2023-01-22T20:03:54.505Z,75.38
2023-01-22T20:05:55.956Z,79.97
2023-01-22T20:07:58.288Z,77.90
2023-01-22T20:10:19.150Z,74.07
2023-01-22T20:12:23.672Z,70.65
2023-01-22T20:14:30.550Z,72.55
2023-01-22T20:16:34.231Z,71.35
2023-01-22T20:18:37.168Z,72.32
2023-01-22T20:20:40.950Z,68.90
2023-01-22T20:22:45.546Z,71.60
2023-01-22T20:25:10.225Z,76.18
2023-01-22T20:27:14.191Z,79.32
2023-01-22T20:29:19.084Z,81.80
2023-01-22T20:31:29.198Z,79.47
2023-01-22T20:33:35.477Z,73.88
2023-01-22T20:35:42.697Z,78.88
2023-01-22T20:37:48.183Z,86.55
2023-01-22T20:39:50.968Z,84.80
2023-01-22T20:41:54.260Z,84.03
2023-01-22T20:43:57.207Z,88.63
2023-01-22T20:46:04.042Z,81.43
2023-01-22T20:48:08.435Z,86.35
2023-01-22T20:50:12.429Z,84.43
2023-01-22T20:52:15.748Z,76.63
2023-01-22T20:54:18.465Z,79.40
2023-01-22T20:56:25.418Z,74.75
2023-01-22T20:58:29.809Z,72.97
2023-01-22T21:00:31.268Z,73.68
2023-01-22T21:02:32.806Z,72.10
2023-01-22T21:04:34.228Z,75.63
2023-01-22T21:06:39.514Z,73.35
2023-01-22T21:08:41.660Z,70.35
2023-01-22T21:10:55.219Z,67.55
2023-01-22T21:12:59.542Z,63.53
2023-01-22T21:15:04.530Z,65.30
2023-01-22T21:17:06.011Z,65.72
2023-01-22T21:21:17.653Z,64.38
2023-01-22T21:23:21.781Z,68.10
2023-01-22T21:25:26.006Z,65.05
2023-01-22T21:27:33.164Z,63.42
2023-01-22T21:29:34.830Z,72.10
2023-01-22T21:31:39.424Z,64.85
2023-01-22T21:33:41.648Z,65.15
2023-01-22T21:35:47.645Z,73.32
2023-01-22T21:37:52.132Z,70.78
2023-01-22T21:39:56.248Z,67.68
2023-01-22T21:42:19.256Z,70.90
2023-01-22T21:44:41.961Z,67.15
2023-01-22T21:46:44.419Z,66.53
2023-01-22T21:48:49.390Z,66.97
2023-01-22T21:50:53.563Z,67.95
2023-01-22T21:52:57.793Z,66.43
2023-01-22T21:54:59.299Z,67.60
2023-01-22T21:57:01.073Z,69.07
2023-01-22T21:59:05.333Z,65.72
2023-01-22T22:01:07.550Z,64.80
2023-01-22T22:03:12.031Z,67.00
2023-01-22T22:05:16.875Z,63.40
2023-01-22T22:07:18.543Z,64.55
2023-01-22T22:09:24.714Z,67.40
2023-01-22T22:11:45.623Z,62.90
2023-01-22T22:13:47.106Z,64.57
2023-01-22T22:15:54.371Z,65.53
2023-01-22T22:17:56.043Z,64.70
2023-01-22T22:20:06.117Z,66.70
2023-01-22T22:22:10.271Z,62.20
2023-01-22T22:24:11.846Z,64.38
2023-01-22T22:26:31.923Z,60.40
2023-01-22T22:28:34.082Z,64.80
2023-01-22T22:30:35.546Z,65.15
2023-01-22T22:32:37.028Z,64.28
2023-01-22T22:36:42.663Z,59.22
2023-01-22T22:38:44.164Z,62.97
2023-01-22T22:41:20.818Z,64.65
2023-01-22T22:43:44.085Z,63.78
2023-01-22T22:45:51.451Z,57.28
2023-01-22T22:49:57.822Z,61.35
2023-01-22T22:51:59.236Z,60.45
2023-01-22T22:54:01.941Z,66.45
2023-01-22T22:56:06.929Z,61.80
2023-01-22T22:58:15.011Z,63.53
2023-01-22T23:00:19.643Z,62.83
2023-01-22T23:02:21.476Z,65.60
2023-01-22T23:04:26.094Z,65.35
2023-01-22T23:06:28.692Z,61.60
2023-01-22T23:08:30.107Z,66.00
2023-01-22T23:10:49.943Z,60.33
2023-01-22T23:12:51.382Z,65.90
2023-01-22T23:14:52.890Z,61.78
2023-01-22T23:16:57.909Z,61.60
2023-01-22T23:19:01.717Z,60.42
2023-01-22T23:21:14.018Z,62.08
2023-01-22T23:23:25.990Z,57.08
2023-01-22T23:25:38.758Z,61.20
2023-01-22T23:27:55.748Z,59.40
2023-01-22T23:29:59.883Z,63.08
2023-01-22T23:32:09.828Z,56.77
2023-01-22T23:34:27.154Z,59.28
2023-01-22T23:36:34.979Z,65.35
2023-01-22T23:38:44.003Z,60.15
2023-01-22T23:41:07.999Z,60.63
2023-01-22T23:43:17.674Z,57.45
2023-01-22T23:45:42.986Z,63.72
2023-01-22T23:47:49.238Z,59.92
2023-01-22T23:49:52.098Z,60.17
2023-01-22T23:51:53.573Z,57.40
2023-01-22T23:56:00.523Z,62.78
2023-01-22T23:58:01.948Z,73.20
